sensor_id;sensor_type;location;lat;lon;timestamp;P1;durP1;ratioP1;P2;durP2;ratioP2
71383;SDS011;67558;52.166;5.004;2023-02-15T00:01:54;18.52;;;10.30;;
71383;SDS011;67558;52.166;5.004;2023-02-15T00:04:21;21.90;;;12.50;;
71383;SDS011;67558;52.166;5.004;2023-02-15T00:06:48;20.33;;;10.20;;
71383;SDS011;67558;52.166;5.004;2023-02-15T00:09:14;21.88;;;11.00;;
71383;SDS011;67558;52.166;5.004;2023-02-15T00:11:40;22.55;;;11.45;;
71383;SDS011;67558;52.166;5.004;2023-02-15T00:14:11;22.95;;;11.95;;
71383;SDS011;67558;52.166;5.004;2023-02-15T00:16:39;19.45;;;11.10;;
71383;SDS011;67558;52.166;5.004;2023-02-15T00:19:06;22.63;;;11.57;;
71383;SDS011;67558;52.166;5.004;2023-02-15T00:21:32;20.05;;;12.25;;
71383;SDS011;67558;52.166;5.004;2023-02-15T00:23:59;20.42;;;11.05;;
71383;SDS011;67558;52.166;5.004;2023-02-15T00:26:25;13.63;;;10.27;;
71383;SDS011;67558;52.166;5.004;2023-02-15T00:28:51;18.98;;;10.15;;
71383;SDS011;67558;52.166;5.004;2023-02-15T00:31:17;23.55;;;10.77;;
71383;SDS011;67558;52.166;5.004;2023-02-15T00:33:42;20.45;;;10.75;;
71383;SDS011;67558;52.166;5.004;2023-02-15T00:36:08;21.77;;;11.40;;
71383;SDS011;67558;52.166;5.004;2023-02-15T00:38:34;19.95;;;10.15;;
71383;SDS011;67558;52.166;5.004;2023-02-15T00:41:01;19.00;;;10.90;;
71383;SDS011;67558;52.166;5.004;2023-02-15T00:43:29;16.95;;;10.35;;
71383;SDS011;67558;52.166;5.004;2023-02-15T00:45:55;25.00;;;13.20;;
71383;SDS011;67558;52.166;5.004;2023-02-15T00:48:21;17.98;;;10.93;;
71383;SDS011;67558;52.166;5.004;2023-02-15T00:50:51;21.10;;;12.13;;
71383;SDS011;67558;52.166;5.004;2023-02-15T00:53:18;20.55;;;11.35;;
71383;SDS011;67558;52.166;5.004;2023-02-15T00:55:43;19.80;;;11.35;;
71383;SDS011;67558;52.166;5.004;2023-02-15T00:58:09;23.58;;;11.48;;
71383;SDS011;67558;52.166;5.004;2023-02-15T01:00:36;19.15;;;11.50;;
71383;SDS011;67558;52.166;5.004;2023-02-15T01:03:02;22.15;;;11.43;;
71383;SDS011;67558;52.166;5.004;2023-02-15T01:05:27;22.58;;;11.85;;
71383;SDS011;67558;52.166;5.004;2023-02-15T01:07:54;17.85;;;11.02;;
71383;SDS011;67558;52.166;5.004;2023-02-15T01:10:20;16.48;;;9.68;;
71383;SDS011;67558;52.166;5.004;2023-02-15T01:12:46;18.10;;;8.45;;
71383;SDS011;67558;52.166;5.004;2023-02-15T01:15:11;16.77;;;11.35;;
71383;SDS011;67558;52.166;5.004;2023-02-15T01:17:37;15.07;;;10.45;;
71383;SDS011;67558;52.166;5.004;2023-02-15T01:20:02;21.08;;;12.27;;
71383;SDS011;67558;52.166;5.004;2023-02-15T01:22:28;18.02;;;10.10;;
71383;SDS011;67558;52.166;5.004;2023-02-15T01:24:53;19.90;;;10.15;;
71383;SDS011;67558;52.166;5.004;2023-02-15T01:27:19;15.38;;;9.00;;
71383;SDS011;67558;52.166;5.004;2023-02-15T01:29:45;16.35;;;10.55;;
71383;SDS011;67558;52.166;5.004;2023-02-15T01:32:10;22.60;;;10.90;;
71383;SDS011;67558;52.166;5.004;2023-02-15T01:34:35;18.27;;;9.85;;
71383;SDS011;67558;52.166;5.004;2023-02-15T01:37:01;16.00;;;10.02;;
71383;SDS011;67558;52.166;5.004;2023-02-15T01:39:26;18.73;;;9.98;;
71383;SDS011;67558;52.166;5.004;2023-02-15T01:41:52;15.65;;;9.15;;
71383;SDS011;67558;52.166;5.004;2023-02-15T01:47:12;17.83;;;10.35;;
71383;SDS011;67558;52.166;5.004;2023-02-15T01:49:42;18.33;;;9.90;;
71383;SDS011;67558;52.166;5.004;2023-02-15T01:52:10;15.60;;;7.85;;
71383;SDS011;67558;52.166;5.004;2023-02-15T01:54:38;19.45;;;9.52;;
71383;SDS011;67558;52.166;5.004;2023-02-15T01:57:12;25.15;;;10.85;;
71383;SDS011;67558;52.166;5.004;2023-02-15T01:59:48;13.35;;;9.35;;
71383;SDS011;67558;52.166;5.004;2023-02-15T02:02:17;20.75;;;9.90;;
71383;SDS011;67558;52.166;5.004;2023-02-15T02:04:49;13.60;;;8.00;;
71383;SDS011;67558;52.166;5.004;2023-02-15T02:07:19;17.33;;;9.40;;
71383;SDS011;67558;52.166;5.004;2023-02-15T02:09:47;18.17;;;10.50;;
71383;SDS011;67558;52.166;5.004;2023-02-15T02:12:13;19.38;;;11.23;;
71383;SDS011;67558;52.166;5.004;2023-02-15T02:14:40;21.83;;;10.23;;
71383;SDS011;67558;52.166;5.004;2023-02-15T02:17:10;20.48;;;10.77;;
71383;SDS011;67558;52.166;5.004;2023-02-15T02:36:40;23.38;;;11.50;;
71383;SDS011;67558;52.166;5.004;2023-02-15T02:41:50;26.02;;;12.30;;
71383;SDS011;67558;52.166;5.004;2023-02-15T02:46:59;20.30;;;11.32;;
71383;SDS011;67558;52.166;5.004;2023-02-15T02:49:38;24.60;;;10.63;;
71383;SDS011;67558;52.166;5.004;2023-02-15T02:52:06;25.75;;;11.27;;
71383;SDS011;67558;52.166;5.004;2023-02-15T02:54:52;25.65;;;13.15;;
71383;SDS011;67558;52.166;5.004;2023-02-15T02:57:19;24.88;;;11.50;;
71383;SDS011;67558;52.166;5.004;2023-02-15T02:59:48;21.23;;;11.50;;
71383;SDS011;67558;52.166;5.004;2023-02-15T03:02:23;23.65;;;11.18;;
71383;SDS011;67558;52.166;5.004;2023-02-15T03:04:55;19.42;;;10.23;;
71383;SDS011;67558;52.166;5.004;2023-02-15T03:07:28;17.88;;;11.50;;
71383;SDS011;67558;52.166;5.004;2023-02-15T03:09:57;24.58;;;11.00;;
71383;SDS011;67558;52.166;5.004;2023-02-15T03:12:29;21.17;;;9.50;;
71383;SDS011;67558;52.166;5.004;2023-02-15T03:15:02;21.65;;;11.13;;
71383;SDS011;67558;52.166;5.004;2023-02-15T03:17:31;19.85;;;11.48;;
71383;SDS011;67558;52.166;5.004;2023-02-15T03:20:00;21.83;;;11.20;;
71383;SDS011;67558;52.166;5.004;2023-02-15T03:22:36;18.17;;;11.13;;
71383;SDS011;67558;52.166;5.004;2023-02-15T03:25:06;16.98;;;9.45;;
71383;SDS011;67558;52.166;5.004;2023-02-15T03:27:43;18.75;;;10.27;;
71383;SDS011;67558;52.166;5.004;2023-02-15T03:30:11;17.63;;;9.95;;
71383;SDS011;67558;52.166;5.004;2023-02-15T03:32:39;20.33;;;11.15;;
71383;SDS011;67558;52.166;5.004;2023-02-15T03:35:07;20.52;;;10.38;;
71383;SDS011;67558;52.166;5.004;2023-02-15T03:37:44;16.48;;;9.30;;
71383;SDS011;67558;52.166;5.004;2023-02-15T03:40:36;18.90;;;10.65;;
71383;SDS011;67558;52.166;5.004;2023-02-15T03:43:23;19.95;;;11.52;;
71383;SDS011;67558;52.166;5.004;2023-02-15T03:45:51;19.23;;;9.57;;
71383;SDS011;67558;52.166;5.004;2023-02-15T03:48:29;18.42;;;9.77;;
71383;SDS011;67558;52.166;5.004;2023-02-15T03:51:04;15.73;;;8.25;;
71383;SDS011;67558;52.166;5.004;2023-02-15T03:53:51;16.80;;;9.73;;
71383;SDS011;67558;52.166;5.004;2023-02-15T03:56:18;14.98;;;8.45;;
71383;SDS011;67558;52.166;5.004;2023-02-15T03:58:43;30.27;;;12.27;;
71383;SDS011;67558;52.166;5.004;2023-02-15T04:01:31;18.30;;;10.20;;
71383;SDS011;67558;52.166;5.004;2023-02-15T04:04:21;21.55;;;9.93;;
71383;SDS011;67558;52.166;5.004;2023-02-15T04:06:49;22.58;;;11.73;;
71383;SDS011;67558;52.166;5.004;2023-02-15T04:09:15;22.08;;;9.88;;
71383;SDS011;67558;52.166;5.004;2023-02-15T04:12:00;19.77;;;11.85;;
71383;SDS011;67558;52.166;5.004;2023-02-15T04:14:25;26.92;;;11.65;;
71383;SDS011;67558;52.166;5.004;2023-02-15T04:17:09;23.17;;;11.80;;
71383;SDS011;67558;52.166;5.004;2023-02-15T04:19:35;21.73;;;11.00;;
71383;SDS011;67558;52.166;5.004;2023-02-15T04:22:19;19.88;;;11.40;;
71383;SDS011;67558;52.166;5.004;2023-02-15T04:25:03;18.35;;;12.25;;
71383;SDS011;67558;52.166;5.004;2023-02-15T04:27:34;23.75;;;10.98;;
71383;SDS011;67558;52.166;5.004;2023-02-15T04:30:00;21.88;;;11.23;;
71383;SDS011;67558;52.166;5.004;2023-02-15T04:32:25;20.58;;;11.70;;
71383;SDS011;67558;52.166;5.004;2023-02-15T04:34:51;24.98;;;11.50;;
71383;SDS011;67558;52.166;5.004;2023-02-15T04:37:17;23.88;;;12.68;;
71383;SDS011;67558;52.166;5.004;2023-02-15T04:39:42;24.10;;;11.77;;
71383;SDS011;67558;52.166;5.004;2023-02-15T04:42:07;23.05;;;11.35;;
71383;SDS011;67558;52.166;5.004;2023-02-15T04:44:33;23.38;;;13.15;;
71383;SDS011;67558;52.166;5.004;2023-02-15T04:46:58;26.52;;;13.55;;
71383;SDS011;67558;52.166;5.004;2023-02-15T04:49:23;24.75;;;12.48;;
71383;SDS011;67558;52.166;5.004;2023-02-15T04:51:49;27.30;;;14.55;;
71383;SDS011;67558;52.166;5.004;2023-02-15T04:54:14;29.40;;;13.02;;
71383;SDS011;67558;52.166;5.004;2023-02-15T04:56:39;27.30;;;12.82;;
71383;SDS011;67558;52.166;5.004;2023-02-15T04:59:05;20.17;;;11.20;;
71383;SDS011;67558;52.166;5.004;2023-02-15T05:01:31;25.60;;;14.05;;
71383;SDS011;67558;52.166;5.004;2023-02-15T05:03:56;21.63;;;10.95;;
71383;SDS011;67558;52.166;5.004;2023-02-15T05:06:21;23.60;;;11.98;;
71383;SDS011;67558;52.166;5.004;2023-02-15T05:08:47;24.13;;;11.35;;
71383;SDS011;67558;52.166;5.004;2023-02-15T05:11:12;27.60;;;11.95;;
71383;SDS011;67558;52.166;5.004;2023-02-15T05:13:38;28.13;;;13.20;;
71383;SDS011;67558;52.166;5.004;2023-02-15T05:16:03;27.98;;;12.68;;
71383;SDS011;67558;52.166;5.004;2023-02-15T05:18:29;22.90;;;12.98;;
71383;SDS011;67558;52.166;5.004;2023-02-15T05:20:54;21.35;;;11.52;;
71383;SDS011;67558;52.166;5.004;2023-02-15T05:23:19;21.00;;;10.90;;
71383;SDS011;67558;52.166;5.004;2023-02-15T05:25:48;21.77;;;11.38;;
71383;SDS011;67558;52.166;5.004;2023-02-15T05:28:32;23.30;;;11.05;;
71383;SDS011;67558;52.166;5.004;2023-02-15T05:33:23;21.03;;;10.60;;
71383;SDS011;67558;52.166;5.004;2023-02-15T05:35:49;23.67;;;10.98;;
71383;SDS011;67558;52.166;5.004;2023-02-15T05:38:14;26.25;;;12.57;;
71383;SDS011;67558;52.166;5.004;2023-02-15T05:40:40;20.02;;;12.30;;
71383;SDS011;67558;52.166;5.004;2023-02-15T05:43:05;20.88;;;11.93;;
71383;SDS011;67558;52.166;5.004;2023-02-15T05:45:30;15.55;;;10.52;;
71383;SDS011;67558;52.166;5.004;2023-02-15T05:47:56;20.98;;;11.15;;
71383;SDS011;67558;52.166;5.004;2023-02-15T05:50:23;18.83;;;10.45;;
71383;SDS011;67558;52.166;5.004;2023-02-15T05:52:49;17.77;;;10.43;;
71383;SDS011;67558;52.166;5.004;2023-02-15T05:55:14;20.65;;;10.68;;
71383;SDS011;67558;52.166;5.004;2023-02-15T05:57:39;22.75;;;11.63;;
71383;SDS011;67558;52.166;5.004;2023-02-15T06:00:05;25.60;;;11.48;;
71383;SDS011;67558;52.166;5.004;2023-02-15T06:02:34;20.42;;;10.82;;
71383;SDS011;67558;52.166;5.004;2023-02-15T06:05:00;20.08;;;11.23;;
71383;SDS011;67558;52.166;5.004;2023-02-15T06:07:26;25.02;;;10.80;;
71383;SDS011;67558;52.166;5.004;2023-02-15T06:09:51;23.92;;;11.45;;
71383;SDS011;67558;52.166;5.004;2023-02-15T06:12:16;16.27;;;9.82;;
71383;SDS011;67558;52.166;5.004;2023-02-15T06:14:42;18.00;;;9.32;;
71383;SDS011;67558;52.166;5.004;2023-02-15T06:17:07;21.27;;;11.07;;
71383;SDS011;67558;52.166;5.004;2023-02-15T06:19:32;18.30;;;11.45;;
71383;SDS011;67558;52.166;5.004;2023-02-15T06:21:58;18.85;;;10.65;;
71383;SDS011;67558;52.166;5.004;2023-02-15T06:24:23;28.70;;;12.85;;
71383;SDS011;67558;52.166;5.004;2023-02-15T06:26:48;17.77;;;10.40;;
71383;SDS011;67558;52.166;5.004;2023-02-15T06:29:17;21.05;;;11.52;;
71383;SDS011;67558;52.166;5.004;2023-02-15T06:31:42;23.13;;;11.57;;
71383;SDS011;67558;52.166;5.004;2023-02-15T06:34:07;21.60;;;9.80;;
71383;SDS011;67558;52.166;5.004;2023-02-15T06:36:33;18.17;;;9.95;;
71383;SDS011;67558;52.166;5.004;2023-02-15T06:38:58;20.02;;;10.93;;
71383;SDS011;67558;52.166;5.004;2023-02-15T06:41:24;21.13;;;11.20;;
71383;SDS011;67558;52.166;5.004;2023-02-15T06:43:49;18.10;;;10.15;;
71383;SDS011;67558;52.166;5.004;2023-02-15T06:46:15;24.95;;;12.65;;
71383;SDS011;67558;52.166;5.004;2023-02-15T06:48:40;20.63;;;9.80;;
71383;SDS011;67558;52.166;5.004;2023-02-15T06:51:06;20.90;;;11.23;;
71383;SDS011;67558;52.166;5.004;2023-02-15T06:53:32;24.73;;;11.85;;
71383;SDS011;67558;52.166;5.004;2023-02-15T06:56:04;17.65;;;10.63;;
71383;SDS011;67558;52.166;5.004;2023-02-15T06:58:52;19.17;;;9.48;;
71383;SDS011;67558;52.166;5.004;2023-02-15T07:01:17;20.52;;;10.63;;
71383;SDS011;67558;52.166;5.004;2023-02-15T07:03:43;20.67;;;10.35;;
71383;SDS011;67558;52.166;5.004;2023-02-15T07:06:08;20.48;;;12.05;;
71383;SDS011;67558;52.166;5.004;2023-02-15T07:08:35;17.92;;;8.23;;
71383;SDS011;67558;52.166;5.004;2023-02-15T07:11:01;19.42;;;10.73;;
71383;SDS011;67558;52.166;5.004;2023-02-15T07:13:45;21.30;;;9.85;;
71383;SDS011;67558;52.166;5.004;2023-02-15T07:16:11;20.17;;;10.90;;
71383;SDS011;67558;52.166;5.004;2023-02-15T07:18:38;20.77;;;11.20;;
71383;SDS011;67558;52.166;5.004;2023-02-15T07:21:04;23.92;;;11.18;;
71383;SDS011;67558;52.166;5.004;2023-02-15T07:23:33;21.55;;;11.68;;
71383;SDS011;67558;52.166;5.004;2023-02-15T07:26:01;21.38;;;11.02;;
71383;SDS011;67558;52.166;5.004;2023-02-15T07:28:27;24.88;;;12.15;;
71383;SDS011;67558;52.166;5.004;2023-02-15T07:30:53;26.02;;;11.90;;
71383;SDS011;67558;52.166;5.004;2023-02-15T07:33:18;19.50;;;9.63;;
71383;SDS011;67558;52.166;5.004;2023-02-15T07:35:58;21.95;;;11.20;;
71383;SDS011;67558;52.166;5.004;2023-02-15T07:38:27;22.48;;;10.43;;
71383;SDS011;67558;52.166;5.004;2023-02-15T07:41:00;26.02;;;11.55;;
71383;SDS011;67558;52.166;5.004;2023-02-15T07:43:27;26.75;;;11.80;;
71383;SDS011;67558;52.166;5.004;2023-02-15T07:45:54;17.92;;;11.07;;
71383;SDS011;67558;52.166;5.004;2023-02-15T07:48:23;23.20;;;11.90;;
71383;SDS011;67558;52.166;5.004;2023-02-15T07:50:49;29.42;;;13.07;;
71383;SDS011;67558;52.166;5.004;2023-02-15T07:53:14;24.73;;;10.57;;
71383;SDS011;67558;52.166;5.004;2023-02-15T07:55:39;14.95;;;9.00;;
71383;SDS011;67558;52.166;5.004;2023-02-15T07:58:05;24.48;;;13.35;;
71383;SDS011;67558;52.166;5.004;2023-02-15T08:00:30;24.17;;;12.73;;
71383;SDS011;67558;52.166;5.004;2023-02-15T08:03:16;21.15;;;11.90;;
71383;SDS011;67558;52.166;5.004;2023-02-15T08:05:42;27.30;;;13.77;;
71383;SDS011;67558;52.166;5.004;2023-02-15T08:08:09;32.63;;;12.60;;
71383;SDS011;67558;52.166;5.004;2023-02-15T08:10:58;27.77;;;13.80;;
71383;SDS011;67558;52.166;5.004;2023-02-15T08:13:44;24.08;;;13.27;;
71383;SDS011;67558;52.166;5.004;2023-02-15T08:16:18;25.88;;;13.85;;
71383;SDS011;67558;52.166;5.004;2023-02-15T08:18:47;26.77;;;13.95;;
71383;SDS011;67558;52.166;5.004;2023-02-15T08:21:13;21.02;;;10.85;;
71383;SDS011;67558;52.166;5.004;2023-02-15T08:23:38;26.73;;;13.73;;
71383;SDS011;67558;52.166;5.004;2023-02-15T08:26:03;25.95;;;12.20;;
71383;SDS011;67558;52.166;5.004;2023-02-15T08:28:29;25.85;;;13.68;;
71383;SDS011;67558;52.166;5.004;2023-02-15T08:30:55;22.08;;;11.93;;
71383;SDS011;67558;52.166;5.004;2023-02-15T08:33:24;25.33;;;15.00;;
71383;SDS011;67558;52.166;5.004;2023-02-15T08:35:53;24.77;;;11.73;;
71383;SDS011;67558;52.166;5.004;2023-02-15T08:38:18;23.92;;;11.70;;
71383;SDS011;67558;52.166;5.004;2023-02-15T08:40:43;23.35;;;12.13;;
71383;SDS011;67558;52.166;5.004;2023-02-15T08:43:09;28.58;;;13.85;;
71383;SDS011;67558;52.166;5.004;2023-02-15T08:45:35;29.45;;;13.70;;
71383;SDS011;67558;52.166;5.004;2023-02-15T08:48:00;26.25;;;14.10;;
71383;SDS011;67558;52.166;5.004;2023-02-15T08:50:26;25.23;;;13.00;;
71383;SDS011;67558;52.166;5.004;2023-02-15T08:52:51;28.48;;;13.80;;
71383;SDS011;67558;52.166;5.004;2023-02-15T08:55:16;28.95;;;15.13;;
71383;SDS011;67558;52.166;5.004;2023-02-15T08:57:42;28.00;;;13.43;;
71383;SDS011;67558;52.166;5.004;2023-02-15T09:00:10;29.02;;;14.02;;
71383;SDS011;67558;52.166;5.004;2023-02-15T09:02:37;24.50;;;13.20;;
71383;SDS011;67558;52.166;5.004;2023-02-15T09:05:02;29.60;;;13.40;;
71383;SDS011;67558;52.166;5.004;2023-02-15T09:07:28;30.02;;;14.88;;
71383;SDS011;67558;52.166;5.004;2023-02-15T09:09:54;19.92;;;12.05;;
71383;SDS011;67558;52.166;5.004;2023-02-15T09:12:19;28.80;;;12.88;;
71383;SDS011;67558;52.166;5.004;2023-02-15T09:14:45;29.50;;;15.50;;
71383;SDS011;67558;52.166;5.004;2023-02-15T09:17:10;28.27;;;14.32;;
71383;SDS011;67558;52.166;5.004;2023-02-15T09:19:35;25.52;;;13.82;;
71383;SDS011;67558;52.166;5.004;2023-02-15T09:22:01;27.65;;;13.43;;
71383;SDS011;67558;52.166;5.004;2023-02-15T09:24:26;31.50;;;15.43;;
71383;SDS011;67558;52.166;5.004;2023-02-15T09:26:51;31.65;;;14.07;;
71383;SDS011;67558;52.166;5.004;2023-02-15T09:29:17;26.83;;;15.02;;
71383;SDS011;67558;52.166;5.004;2023-02-15T09:31:44;29.63;;;13.20;;
71383;SDS011;67558;52.166;5.004;2023-02-15T09:34:14;32.80;;;15.82;;
71383;SDS011;67558;52.166;5.004;2023-02-15T09:36:43;25.38;;;14.35;;
71383;SDS011;67558;52.166;5.004;2023-02-15T09:39:10;25.45;;;13.27;;
71383;SDS011;67558;52.166;5.004;2023-02-15T09:49:34;28.80;;;15.50;;
71383;SDS011;67558;52.166;5.004;2023-02-15T10:00:31;32.47;;;14.52;;
71383;SDS011;67558;52.166;5.004;2023-02-15T10:09:12;25.80;;;15.40;;
71383;SDS011;67558;52.166;5.004;2023-02-15T10:18:00;33.95;;;14.55;;
71383;SDS011;67558;52.166;5.004;2023-02-15T10:20:45;32.60;;;14.07;;
71383;SDS011;67558;52.166;5.004;2023-02-15T10:31:34;29.13;;;15.85;;
71383;SDS011;67558;52.166;5.004;2023-02-15T10:40:01;29.23;;;15.23;;
71383;SDS011;67558;52.166;5.004;2023-02-15T10:45:02;27.90;;;15.73;;
71383;SDS011;67558;52.166;5.004;2023-02-15T10:56:09;26.55;;;14.93;;
71383;SDS011;67558;52.166;5.004;2023-02-15T11:01:53;36.45;;;16.45;;
71383;SDS011;67558;52.166;5.004;2023-02-15T11:07:24;34.42;;;17.45;;
71383;SDS011;67558;52.166;5.004;2023-02-15T11:09:56;29.80;;;15.82;;
71383;SDS011;67558;52.166;5.004;2023-02-15T11:12:27;32.72;;;16.80;;
71383;SDS011;67558;52.166;5.004;2023-02-15T11:14:58;34.13;;;17.25;;
71383;SDS011;67558;52.166;5.004;2023-02-15T11:17:42;34.83;;;17.05;;
71383;SDS011;67558;52.166;5.004;2023-02-15T11:20:18;32.85;;;16.20;;
71383;SDS011;67558;52.166;5.004;2023-02-15T11:22:54;33.33;;;16.40;;
71383;SDS011;67558;52.166;5.004;2023-02-15T11:25:22;35.30;;;17.05;;
71383;SDS011;67558;52.166;5.004;2023-02-15T11:27:50;25.58;;;14.60;;
71383;SDS011;67558;52.166;5.004;2023-02-15T11:30:21;31.17;;;17.42;;
71383;SDS011;67558;52.166;5.004;2023-02-15T11:32:49;34.03;;;18.05;;
71383;SDS011;67558;52.166;5.004;2023-02-15T11:35:22;41.22;;;18.95;;
71383;SDS011;67558;52.166;5.004;2023-02-15T11:40:31;37.95;;;18.15;;
71383;SDS011;67558;52.166;5.004;2023-02-15T11:42:58;32.65;;;17.38;;
71383;SDS011;67558;52.166;5.004;2023-02-15T11:45:38;33.85;;;19.25;;
71383;SDS011;67558;52.166;5.004;2023-02-15T11:48:10;34.20;;;18.55;;
71383;SDS011;67558;52.166;5.004;2023-02-15T11:50:37;35.85;;;17.70;;
71383;SDS011;67558;52.166;5.004;2023-02-15T11:55:58;42.10;;;18.40;;
71383;SDS011;67558;52.166;5.004;2023-02-15T11:58:39;34.28;;;18.90;;
71383;SDS011;67558;52.166;5.004;2023-02-15T12:01:09;36.15;;;18.40;;
71383;SDS011;67558;52.166;5.004;2023-02-15T12:03:48;29.70;;;16.63;;
71383;SDS011;67558;52.166;5.004;2023-02-15T12:08:52;35.28;;;17.27;;
71383;SDS011;67558;52.166;5.004;2023-02-15T12:11:34;32.60;;;18.90;;
71383;SDS011;67558;52.166;5.004;2023-02-15T12:14:05;35.88;;;17.00;;
71383;SDS011;67558;52.166;5.004;2023-02-15T12:16:54;37.85;;;21.25;;
71383;SDS011;67558;52.166;5.004;2023-02-15T12:19:30;42.45;;;19.45;;
71383;SDS011;67558;52.166;5.004;2023-02-15T12:21:58;31.90;;;17.20;;
71383;SDS011;67558;52.166;5.004;2023-02-15T12:24:27;37.03;;;18.70;;
71383;SDS011;67558;52.166;5.004;2023-02-15T12:27:02;36.97;;;18.73;;
71383;SDS011;67558;52.166;5.004;2023-02-15T12:29:34;40.38;;;19.60;;
71383;SDS011;67558;52.166;5.004;2023-02-15T12:32:05;35.03;;;18.83;;
71383;SDS011;67558;52.166;5.004;2023-02-15T12:34:37;37.28;;;20.23;;
71383;SDS011;67558;52.166;5.004;2023-02-15T12:37:10;41.15;;;21.25;;
71383;SDS011;67558;52.166;5.004;2023-02-15T12:39:56;38.90;;;20.00;;
71383;SDS011;67558;52.166;5.004;2023-02-15T12:42:24;33.95;;;18.50;;
71383;SDS011;67558;52.166;5.004;2023-02-15T12:44:58;42.80;;;22.73;;
71383;SDS011;67558;52.166;5.004;2023-02-15T12:47:45;33.75;;;19.25;;
71383;SDS011;67558;52.166;5.004;2023-02-15T12:52:47;39.17;;;20.63;;
71383;SDS011;67558;52.166;5.004;2023-02-15T12:55:25;33.03;;;18.30;;
71383;SDS011;67558;52.166;5.004;2023-02-15T13:00:44;36.50;;;20.98;;
71383;SDS011;67558;52.166;5.004;2023-02-15T13:03:17;37.28;;;19.80;;
71383;SDS011;67558;52.166;5.004;2023-02-15T13:05:46;36.08;;;20.40;;
71383;SDS011;67558;52.166;5.004;2023-02-15T13:08:26;35.00;;;18.95;;
71383;SDS011;67558;52.166;5.004;2023-02-15T13:10:54;30.92;;;17.98;;
71383;SDS011;67558;52.166;5.004;2023-02-15T13:13:29;30.38;;;17.63;;
71383;SDS011;67558;52.166;5.004;2023-02-15T13:16:07;39.50;;;18.42;;
71383;SDS011;67558;52.166;5.004;2023-02-15T13:18:44;33.58;;;19.10;;
71383;SDS011;67558;52.166;5.004;2023-02-15T13:21:12;32.53;;;18.25;;
71383;SDS011;67558;52.166;5.004;2023-02-15T13:23:42;38.28;;;20.17;;
71383;SDS011;67558;52.166;5.004;2023-02-15T13:26:14;43.47;;;21.00;;
71383;SDS011;67558;52.166;5.004;2023-02-15T13:28:47;37.88;;;19.77;;
71383;SDS011;67558;52.166;5.004;2023-02-15T13:31:20;34.30;;;20.63;;
71383;SDS011;67558;52.166;5.004;2023-02-15T13:33:56;35.25;;;19.63;;
71383;SDS011;67558;52.166;5.004;2023-02-15T13:39:15;33.70;;;18.83;;
71383;SDS011;67558;52.166;5.004;2023-02-15T13:45:02;34.35;;;18.90;;
71383;SDS011;67558;52.166;5.004;2023-02-15T13:47:36;36.75;;;18.80;;
71383;SDS011;67558;52.166;5.004;2023-02-15T13:50:38;38.13;;;19.80;;
71383;SDS011;67558;52.166;5.004;2023-02-15T14:01:50;42.50;;;21.15;;
71383;SDS011;67558;52.166;5.004;2023-02-15T14:12:43;39.83;;;20.65;;
71383;SDS011;67558;52.166;5.004;2023-02-15T14:15:29;38.58;;;18.85;;
71383;SDS011;67558;52.166;5.004;2023-02-15T14:31:18;29.77;;;17.52;;
71383;SDS011;67558;52.166;5.004;2023-02-15T14:33:53;40.53;;;20.50;;
71383;SDS011;67558;52.166;5.004;2023-02-15T14:36:21;42.13;;;21.08;;
71383;SDS011;67558;52.166;5.004;2023-02-15T14:38:54;37.33;;;20.60;;
71383;SDS011;67558;52.166;5.004;2023-02-15T14:41:39;36.90;;;20.35;;
71383;SDS011;67558;52.166;5.004;2023-02-15T14:47:01;40.78;;;21.38;;
71383;SDS011;67558;52.166;5.004;2023-02-15T14:49:32;39.40;;;20.95;;
71383;SDS011;67558;52.166;5.004;2023-02-15T14:59:26;34.50;;;20.65;;
71383;SDS011;67558;52.166;5.004;2023-02-15T15:04:44;43.03;;;21.65;;
71383;SDS011;67558;52.166;5.004;2023-02-15T15:07:22;37.72;;;20.50;;
71383;SDS011;67558;52.166;5.004;2023-02-15T15:10:04;34.63;;;19.58;;
71383;SDS011;67558;52.166;5.004;2023-02-15T15:12:42;42.28;;;19.90;;
71383;SDS011;67558;52.166;5.004;2023-02-15T15:15:11;39.15;;;19.05;;
71383;SDS011;67558;52.166;5.004;2023-02-15T15:17:53;37.17;;;20.60;;
71383;SDS011;67558;52.166;5.004;2023-02-15T15:20:38;37.05;;;20.27;;
71383;SDS011;67558;52.166;5.004;2023-02-15T15:31:00;33.95;;;18.05;;
71383;SDS011;67558;52.166;5.004;2023-02-15T15:33:40;36.45;;;19.45;;
71383;SDS011;67558;52.166;5.004;2023-02-15T15:43:06;36.10;;;19.58;;
71383;SDS011;67558;52.166;5.004;2023-02-15T15:50:24;38.05;;;20.67;;
71383;SDS011;67558;52.166;5.004;2023-02-15T15:52:51;40.03;;;19.92;;
71383;SDS011;67558;52.166;5.004;2023-02-15T15:55:20;40.03;;;21.83;;
71383;SDS011;67558;52.166;5.004;2023-02-15T15:57:50;32.92;;;18.33;;
71383;SDS011;67558;52.166;5.004;2023-02-15T16:03:12;35.30;;;21.65;;
71383;SDS011;67558;52.166;5.004;2023-02-15T16:05:39;33.03;;;16.98;;
71383;SDS011;67558;52.166;5.004;2023-02-15T16:08:05;38.30;;;19.30;;
71383;SDS011;67558;52.166;5.004;2023-02-15T16:10:31;39.03;;;19.80;;
71383;SDS011;67558;52.166;5.004;2023-02-15T16:12:58;40.22;;;20.63;;
71383;SDS011;67558;52.166;5.004;2023-02-15T16:15:26;40.60;;;19.98;;
71383;SDS011;67558;52.166;5.004;2023-02-15T16:17:59;36.20;;;19.20;;
71383;SDS011;67558;52.166;5.004;2023-02-15T16:20:26;38.88;;;21.88;;
71383;SDS011;67558;52.166;5.004;2023-02-15T16:23:04;40.33;;;22.05;;
71383;SDS011;67558;52.166;5.004;2023-02-15T16:28:24;42.05;;;19.85;;
71383;SDS011;67558;52.166;5.004;2023-02-15T16:33:54;35.70;;;20.15;;
71383;SDS011;67558;52.166;5.004;2023-02-15T16:36:24;36.35;;;19.23;;
71383;SDS011;67558;52.166;5.004;2023-02-15T16:43:53;46.75;;;21.30;;
71383;SDS011;67558;52.166;5.004;2023-02-15T16:48:54;41.83;;;19.85;;
71383;SDS011;67558;52.166;5.004;2023-02-15T16:51:25;38.13;;;22.17;;
71383;SDS011;67558;52.166;5.004;2023-02-15T16:53:52;45.70;;;20.58;;
71383;SDS011;67558;52.166;5.004;2023-02-15T16:56:23;44.85;;;22.48;;
71383;SDS011;67558;52.166;5.004;2023-02-15T16:58:51;42.15;;;19.33;;
71383;SDS011;67558;52.166;5.004;2023-02-15T17:01:19;39.67;;;20.13;;
71383;SDS011;67558;52.166;5.004;2023-02-15T17:03:49;38.42;;;21.25;;
71383;SDS011;67558;52.166;5.004;2023-02-15T17:06:22;36.10;;;19.88;;
71383;SDS011;67558;52.166;5.004;2023-02-15T17:08:52;39.40;;;19.40;;
71383;SDS011;67558;52.166;5.004;2023-02-15T17:11:36;36.50;;;20.55;;
71383;SDS011;67558;52.166;5.004;2023-02-15T17:19:59;33.17;;;17.20;;
71383;SDS011;67558;52.166;5.004;2023-02-15T17:22:16;39.75;;;18.30;;
71383;SDS011;67558;52.166;5.004;2023-02-15T17:24:48;35.13;;;18.77;;
71383;SDS011;67558;52.166;5.004;2023-02-15T17:27:23;32.60;;;18.27;;
71383;SDS011;67558;52.166;5.004;2023-02-15T17:29:52;38.58;;;19.13;;
71383;SDS011;67558;52.166;5.004;2023-02-15T17:32:22;30.58;;;18.10;;
71383;SDS011;67558;52.166;5.004;2023-02-15T17:40:06;35.83;;;17.48;;
71383;SDS011;67558;52.166;5.004;2023-02-15T17:42:41;39.65;;;19.38;;
71383;SDS011;67558;52.166;5.004;2023-02-15T17:45:07;38.85;;;17.77;;
71383;SDS011;67558;52.166;5.004;2023-02-15T17:47:32;39.78;;;18.20;;
71383;SDS011;67558;52.166;5.004;2023-02-15T17:49:58;35.03;;;18.42;;
71383;SDS011;67558;52.166;5.004;2023-02-15T17:52:26;40.25;;;18.25;;
71383;SDS011;67558;52.166;5.004;2023-02-15T17:54:54;35.40;;;18.65;;
71383;SDS011;67558;52.166;5.004;2023-02-15T18:00:04;34.50;;;17.55;;